Time;durP1;ratioP1;P1;durP2;ratioP2;P2;SDS_P1;SDS_P2;PMS_P1;PMS_P2;Temp;Humidity;BMP_temperature;BMP_pressure;BME280_temperature;BME280_humidity;BME280_pressure;Samples;Min_cycle;Max_cycle;Signal;HPM_P1;HPM_P2
2022/11/12 00:01:00;;;;;;;11.68;5.55;;;;;;;7.29;74.37;100438.94;5029547;28;20378;-85
2022/11/12 00:03:25;;;;;;;6.80;4.68;;;;;;;7.30;74.87;100433.41;5032422;28;20098;-85
2022/11/12 00:05:52;;;;;;;8.75;6.03;;;;;;;7.15;75.07;100418.53;5009694;28;20037;-85
2022/11/12 00:08:18;;;;;;;7.80;7.00;;;;;;;7.24;74.82;100441.31;5007858;28;20040;-85
2022/11/12 00:10:44;;;;;;;7.68;6.47;;;;;;;7.06;75.05;100419.66;5023241;28;20489;-84
2022/11/12 00:13:09;;;;;;;7.03;6.20;;;;;;;7.03;75.84;100426.19;4989185;28;20022;-84
2022/11/12 00:15:35;;;;;;;9.52;5.50;;;;;;;7.05;75.79;100431.31;5010521;28;20494;-85
2022/11/12 00:18:00;;;;;;;5.70;5.10;;;;;;;6.99;76.02;100438.16;4995844;28;20037;-84
2022/11/12 00:20:26;;;;;;;5.20;4.75;;;;;;;6.98;75.92;100425.09;5010670;28;20112;-84
2022/11/12 00:22:51;;;;;;;6.97;3.90;;;;;;;6.93;76.28;100406.25;5007261;28;20041;-84
2022/11/12 00:25:16;;;;;;;6.38;5.10;;;;;;;7.16;75.47;100436.97;4989248;28;20038;-85
2022/11/12 00:27:42;;;;;;;10.55;4.68;;;;;;;7.02;75.38;100421.88;5024263;28;20037;-84
2022/11/12 00:30:07;;;;;;;6.85;4.57;;;;;;;7.06;75.42;100428.47;5029202;28;20041;-84
2022/11/12 00:32:36;;;;;;;6.20;4.75;;;;;;;7.05;75.83;100434.78;5011435;28;20049;-85
2022/11/12 00:35:03;;;;;;;8.65;4.40;;;;;;;6.99;75.83;100406.31;5008071;28;20037;-85
2022/11/12 00:37:29;;;;;;;5.95;4.20;;;;;;;7.15;75.34;100437.13;4989885;28;20043;-84
2022/11/12 00:39:54;;;;;;;5.40;4.00;;;;;;;7.04;75.50;100430.47;4993278;28;20029;-84
2022/11/12 00:42:20;;;;;;;5.13;4.25;;;;;;;7.05;75.42;100431.31;4973899;28;20041;-85
2022/11/12 00:44:45;;;;;;;7.28;3.97;;;;;;;7.08;74.72;100442.38;4976562;28;20036;-84
2022/11/12 00:47:11;;;;;;;4.63;3.88;;;;;;;7.05;75.05;100436.63;5008776;28;20025;-85
2022/11/12 00:49:36;;;;;;;4.15;3.75;;;;;;;7.10;75.22;100442.19;4996552;28;20091;-85
2022/11/12 00:52:01;;;;;;;4.28;3.75;;;;;;;7.01;75.81;100441.47;5021455;28;20034;-85
2022/11/12 00:54:27;;;;;;;5.70;3.75;;;;;;;6.81;75.70;100421.84;5025058;28;20041;-85
2022/11/12 00:56:52;;;;;;;6.03;3.80;;;;;;;6.92;75.19;100431.97;5007166;28;20091;-85
2022/11/12 00:59:17;;;;;;;5.75;3.70;;;;;;;6.97;75.16;100455.31;5025415;28;20418;-84
2022/11/12 01:01:43;;;;;;;5.47;3.45;;;;;;;6.90;74.80;100436.66;4978624;28;20033;-85
2022/11/12 01:04:08;;;;;;;6.53;4.07;;;;;;;6.64;75.55;100423.06;5000974;28;20041;-85
2022/11/12 01:06:34;;;;;;;5.07;3.75;;;;;;;6.61;75.46;100423.41;5023301;28;20064;-85
2022/11/12 01:09:00;;;;;;;7.20;3.58;;;;;;;6.76;75.26;100450.75;5008073;28;20036;-85
2022/11/12 01:11:27;;;;;;;4.20;3.13;;;;;;;6.74;75.19;100458.91;4993833;28;20041;-85
2022/11/12 01:13:54;;;;;;;4.35;3.85;;;;;;;6.76;75.88;100469.31;5027854;28;20415;-85
2022/11/12 01:16:21;;;;;;;6.95;3.40;;;;;;;6.72;74.62;100447.66;5026405;28;20028;-85
2022/11/12 01:18:52;;;;;;;4.72;3.28;;;;;;;6.75;75.04;100467.66;5023899;28;21370;-85
2022/11/12 01:21:17;;;;;;;3.47;2.83;;;;;;;6.70;75.22;100447.03;5008738;28;20108;-85
2022/11/12 01:23:42;;;;;;;3.70;3.30;;;;;;;6.71;75.41;100450.47;5003072;28;20113;-84
2022/11/12 01:26:13;;;;;;;3.13;2.72;;;;;;;6.81;75.07;100459.00;4993446;28;20037;-85
2022/11/12 01:28:40;;;;;;;5.30;3.75;;;;;;;6.78;75.17;100456.69;5024542;28;20101;-85
2022/11/12 01:31:21;;;;;;;4.45;3.15;;;;;;;6.81;74.70;100453.69;5028691;28;20092;-85
2022/11/12 01:33:49;;;;;;;4.53;3.17;;;;;;;6.72;75.32;100462.75;4998123;28;20581;-85
2022/11/12 01:36:16;;;;;;;4.13;3.13;;;;;;;6.72;75.28;100468.06;5024883;28;20051;-85
2022/11/12 01:38:43;;;;;;;6.80;3.60;;;;;;;6.74;75.23;100460.72;5027528;28;20029;-85
2022/11/12 01:41:15;;;;;;;3.72;3.08;;;;;;;6.77;74.66;100463.03;5023999;28;20390;-85
2022/11/12 01:43:41;;;;;;;3.75;3.20;;;;;;;6.76;74.60;100462.19;5026272;28;20030;-84
2022/11/12 01:46:26;;;;;;;3.50;3.20;;;;;;;6.71;75.50;100458.44;5009642;28;20032;-85
2022/11/12 01:48:57;;;;;;;6.05;3.40;;;;;;;6.61;75.07;100450.78;5027753;28;20499;-84
2022/11/12 01:51:27;;;;;;;5.55;2.88;;;;;;;6.62;75.37;100439.13;5028111;28;20485;-85
2022/11/12 01:53:57;;;;;;;5.18;3.67;;;;;;;6.45;75.04;100405.84;4993157;28;20113;-85
2022/11/12 01:56:26;;;;;;;5.13;2.83;;;;;;;6.40;75.50;100412.72;5024204;28;20040;-84
2022/11/12 01:58:59;;;;;;;4.72;3.13;;;;;;;6.31;75.28;100409.31;5009560;28;20036;-84
2022/11/12 02:01:25;;;;;;;4.60;3.42;;;;;;;6.18;75.50;100395.88;5014329;28;20121;-84
2022/11/12 02:03:50;;;;;;;6.03;3.35;;;;;;;6.50;75.85;100439.78;4997374;28;20916;-84
2022/11/12 02:06:17;;;;;;;3.15;2.75;;;;;;;6.67;75.64;100439.41;4992575;28;20507;-85
2022/11/12 02:08:43;;;;;;;3.88;3.10;;;;;;;6.57;75.27;100414.19;5012889;28;20029;-84
2022/11/12 02:11:18;;;;;;;5.15;3.00;;;;;;;6.46;75.64;100419.94;4994202;28;20398;-85
2022/11/12 02:13:57;;;;;;;6.32;3.50;;;;;;;6.50;75.33;100427.34;5031163;28;20543;-85
2022/11/12 02:16:35;;;;;;;5.85;3.45;;;;;;;6.71;75.06;100443.34;5031876;28;20045;-85
2022/11/12 02:19:02;;;;;;;5.43;2.95;;;;;;;6.59;75.55;100428.91;5028295;28;20267;-84
2022/11/12 02:21:28;;;;;;;3.67;3.03;;;;;;;6.47;75.57;100411.81;5002799;28;20025;-85
2022/11/12 02:23:57;;;;;;;4.78;2.97;;;;;;;6.46;75.08;100438.50;5026992;28;20033;-85
2022/11/12 02:26:22;;;;;;;5.78;3.53;;;;;;;6.42;75.70;100416.81;5029144;28;20505;-85
2022/11/12 02:28:48;;;;;;;6.32;3.65;;;;;;;6.69;75.57;100429.44;4997141;28;20155;-85
2022/11/12 02:31:13;;;;;;;4.53;2.88;;;;;;;6.76;75.08;100433.00;5036489;28;20029;-85
2022/11/12 02:33:38;;;;;;;3.13;2.83;;;;;;;6.65;74.49;100435.31;5033389;28;20084;-85
2022/11/12 02:36:04;;;;;;;5.05;3.45;;;;;;;6.52;75.29;100419.22;5014522;28;20033;-85
2022/11/12 02:38:30;;;;;;;5.90;3.67;;;;;;;6.72;74.83;100431.75;4995519;28;20442;-85
2022/11/12 02:40:56;;;;;;;4.20;3.20;;;;;;;6.77;74.41;100412.63;4998749;28;20017;-85
2022/11/12 02:43:21;;;;;;;4.63;3.38;;;;;;;6.77;74.34;100424.03;4997547;28;20044;-85
2022/11/12 02:45:46;;;;;;;4.40;3.28;;;;;;;6.81;74.21;100411.22;5013830;28;20133;-85
2022/11/12 02:48:12;;;;;;;5.28;3.05;;;;;;;6.68;73.01;100413.72;4990497;28;20494;-85
2022/11/12 02:50:37;;;;;;;4.90;2.80;;;;;;;6.90;73.73;100449.94;4980185;28;20038;-84
2022/11/12 02:53:03;;;;;;;3.58;3.10;;;;;;;6.52;73.30;100457.16;4989974;28;20121;-85
2022/11/12 02:55:28;;;;;;;5.00;3.10;;;;;;;5.79;77.61;100453.53;5013717;28;20040;-85
2022/11/12 02:57:57;;;;;;;5.60;3.40;;;;;;;6.56;75.09;100450.50;5017525;28;20562;-85
2022/11/12 03:00:22;;;;;;;4.68;3.30;;;;;;;6.68;72.96;100435.75;5031209;28;20493;-86
2022/11/12 03:03:00;;;;;;;3.88;3.10;;;;;;;6.97;73.68;100455.31;5013438;28;20034;-85
2022/11/12 03:05:27;;;;;;;4.05;3.03;;;;;;;6.72;73.26;100449.47;5011477;28;20026;-85
2022/11/12 03:08:01;;;;;;;4.57;3.45;;;;;;;6.64;73.46;100460.19;5013499;28;20037;-85
2022/11/12 03:10:27;;;;;;;5.57;3.33;;;;;;;6.73;73.89;100454.59;5026968;28;20025;-85
2022/11/12 03:12:55;;;;;;;4.45;3.30;;;;;;;6.55;73.93;100454.13;5028799;28;20033;-85
2022/11/12 03:15:20;;;;;;;4.15;3.35;;;;;;;6.44;73.60;100451.97;5029952;28;20025;-85
2022/11/12 03:17:46;;;;;;;4.15;2.85;;;;;;;6.39;74.28;100442.91;5030539;28;20048;-85
2022/11/12 03:20:12;;;;;;;4.30;2.92;;;;;;;6.39;74.23;100451.69;5024424;28;20091;-85
2022/11/12 03:22:38;;;;;;;5.03;3.67;;;;;;;6.30;74.25;100428.06;5022194;28;20092;-85
2022/11/12 03:25:05;;;;;;;4.65;3.00;;;;;;;6.37;74.04;100453.69;5009892;28;20029;-85
2022/11/12 03:27:30;;;;;;;4.22;3.65;;;;;;;5.52;74.72;100441.69;5014777;28;20561;-85
2022/11/12 03:29:56;;;;;;;5.55;3.42;;;;;;;6.11;75.53;100453.28;5017866;28;20117;-85
2022/11/12 03:32:21;;;;;;;7.78;3.47;;;;;;;5.80;74.99;100452.53;5028537;28;20211;-85
2022/11/12 03:34:47;;;;;;;3.08;2.78;;;;;;;6.03;75.03;100446.22;5011111;28;20044;-85
2022/11/12 03:37:12;;;;;;;4.38;3.05;;;;;;;6.26;74.07;100432.09;5031920;28;20129;-85
2022/11/12 03:39:37;;;;;;;3.63;3.30;;;;;;;6.17;73.74;100428.72;5030668;28;20037;-85
2022/11/12 03:42:03;;;;;;;3.80;2.95;;;;;;;6.25;74.04;100446.34;5020817;28;20032;-85
2022/11/12 03:44:28;;;;;;;4.03;2.70;;;;;;;6.10;74.10;100421.66;5029999;28;20040;-85
2022/11/12 03:46:54;;;;;;;6.35;2.85;;;;;;;6.11;73.84;100407.41;5014103;28;20025;-85
2022/11/12 03:49:19;;;;;;;4.57;3.40;;;;;;;6.15;73.56;100425.41;4992727;28;20041;-85
2022/11/12 03:51:45;;;;;;;4.45;3.38;;;;;;;6.07;73.49;100410.41;4990509;28;20037;-85
2022/11/12 03:54:11;;;;;;;5.18;3.38;;;;;;;6.10;73.21;100414.53;4990839;28;20040;-85
2022/11/12 03:56:37;;;;;;;3.58;3.13;;;;;;;6.04;73.84;100400.19;5012379;28;20295;-84
2022/11/12 03:59:03;;;;;;;3.47;3.00;;;;;;;6.11;73.45;100433.91;5028271;28;20030;-84
2022/11/12 04:01:28;;;;;;;4.70;3.55;;;;;;;5.88;73.77;100415.41;5012173;28;20021;-85
2022/11/12 04:03:53;;;;;;;5.07;3.10;;;;;;;5.97;74.17;100423.09;5023438;28;20036;-85
2022/11/12 04:09:03;;;;;;;5.53;3.22;;;;;;;5.67;73.89;100397.53;5000113;28;20107;-84
2022/11/12 04:11:28;;;;;;;4.07;3.63;;;;;;;5.82;74.49;100413.44;5010468;28;20037;-84
2022/11/12 04:13:54;;;;;;;7.90;3.47;;;;;;;5.82;74.45;100413.44;5037784;28;20084;-85
2022/11/12 04:22:16;;;;;;;7.80;4.05;;;;;;;5.80;75.18;100413.63;5022583;28;20040;-85
2022/11/12 04:27:31;;;;;;;5.40;3.30;;;;;;;5.86;75.44;100420.88;5026925;28;20040;-85
2022/11/12 04:30:17;;;;;;;5.95;3.50;;;;;;;5.98;75.13;100424.75;5028793;28;20124;-85
2022/11/12 04:32:53;;;;;;;3.72;3.30;;;;;;;5.69;74.67;100390.22;5029147;28;20029;-85
2022/11/12 04:35:19;;;;;;;4.43;3.25;;;;;;;5.86;74.60;100425.34;5006754;28;20040;-85
2022/11/12 04:37:46;;;;;;;6.32;3.67;;;;;;;5.85;75.16;100426.38;5021882;28;20083;-86
2022/11/12 04:45:51;;;;;;;4.85;3.47;;;;;;;6.16;73.91;100415.66;5031636;28;20515;-85
2022/11/12 04:48:17;;;;;;;7.03;3.70;;;;;;;6.03;74.11;100426.84;5008116;28;20131;-85
2022/11/12 04:50:46;;;;;;;6.18;3.92;;;;;;;5.86;74.34;100412.94;5030620;28;20068;-85
2022/11/12 04:53:12;;;;;;;6.13;3.65;;;;;;;5.93;75.07;100431.59;5023866;28;20040;-85
2022/11/12 04:55:37;;;;;;;7.63;4.15;;;;;;;5.84;74.64;100422.91;5017997;28;20026;-85
2022/11/12 04:58:03;;;;;;;6.45;3.80;;;;;;;5.83;74.74;100413.25;5012793;28;20386;-85
2022/11/12 05:00:29;;;;;;;8.65;4.20;;;;;;;5.85;74.58;100416.56;5011582;28;20032;-85
2022/11/12 05:02:54;;;;;;;4.35;3.65;;;;;;;5.82;74.65;100416.94;5027860;28;20145;-85
2022/11/12 05:05:20;;;;;;;6.30;3.80;;;;;;;5.75;74.74;100389.50;5021926;28;20041;-85
2022/11/12 05:07:45;;;;;;;9.88;4.82;;;;;;;5.66;74.89;100374.69;5014257;28;20124;-85
2022/11/12 05:10:10;;;;;;;5.93;4.30;;;;;;;5.31;74.50;100339.06;5009642;28;20098;-85
2022/11/12 05:12:36;;;;;;;7.10;4.00;;;;;;;5.70;74.75;100396.34;5031776;28;20045;-84
2022/11/12 05:15:02;;;;;;;10.00;4.60;;;;;;;5.70;74.27;100414.88;4994469;28;20037;-85
2022/11/12 05:17:27;;;;;;;8.18;4.57;;;;;;;4.83;77.06;100408.19;5012730;28;20038;-85
2022/11/12 05:19:53;;;;;;;5.65;3.65;;;;;;;5.85;74.68;100415.78;5027493;28;20028;-85
2022/11/12 05:22:19;;;;;;;8.52;4.05;;;;;;;6.00;73.74;100398.06;5005624;28;20025;-85
2022/11/12 05:24:44;;;;;;;5.50;3.55;;;;;;;5.89;73.70;100383.44;5004892;28;20041;-85
2022/11/12 05:27:18;;;;;;;3.88;3.45;;;;;;;6.14;74.01;100413.16;5024019;28;20120;-85
2022/11/12 05:29:44;;;;;;;6.55;4.22;;;;;;;5.89;73.92;100406.47;5023384;28;21521;-85
2022/11/12 05:32:11;;;;;;;5.80;3.63;;;;;;;5.87;73.84;100414.59;5009136;28;20037;-85
2022/11/12 05:34:37;;;;;;;8.73;4.60;;;;;;;5.79;74.10;100408.50;5004006;28;20033;-85
2022/11/12 05:37:04;;;;;;;6.38;3.90;;;;;;;5.77;73.70;100402.56;5013322;28;20052;-85
2022/11/12 05:39:31;;;;;;;4.55;3.83;;;;;;;5.88;74.75;100429.47;5024628;28;20025;-85
2022/11/12 05:41:57;;;;;;;4.50;3.72;;;;;;;5.89;74.27;100419.72;5008228;28;20037;-85
2022/11/12 05:44:22;;;;;;;9.00;3.92;;;;;;;5.93;73.99;100413.88;5026484;28;20102;-85
2022/11/12 05:46:49;;;;;;;7.78;4.30;;;;;;;6.11;74.24;100410.06;4977472;28;20380;-85
2022/11/12 05:49:14;;;;;;;6.05;3.90;;;;;;;5.94;74.18;100398.81;4992635;28;20197;-85
2022/11/12 05:51:40;;;;;;;11.13;5.65;;;;;;;6.21;73.60;100405.31;5002487;28;21029;-85
2022/11/12 05:54:05;;;;;;;4.60;3.55;;;;;;;6.16;74.12;100413.00;4996556;28;20116;-85
2022/11/12 05:56:31;;;;;;;4.55;3.88;;;;;;;5.91;74.57;100415.88;5008596;28;20033;-85
2022/11/12 05:58:56;;;;;;;4.45;4.05;;;;;;;5.88;74.28;100394.19;4993388;28;20091;-85
2022/11/12 06:01:22;;;;;;;7.30;4.25;;;;;;;6.03;73.83;100414.44;4992094;28;20446;-85
2022/11/12 06:03:48;;;;;;;6.65;3.92;;;;;;;5.98;74.19;100395.59;5024381;28;20061;-85
2022/11/12 06:06:13;;;;;;;4.70;4.20;;;;;;;6.01;74.40;100418.25;4988138;28;20033;-85
2022/11/12 06:08:38;;;;;;;7.38;4.50;;;;;;;6.07;74.54;100424.69;5026086;28;20029;-85
2022/11/12 06:11:04;;;;;;;5.43;4.72;;;;;;;5.94;75.05;100423.47;4991660;28;20044;-85
2022/11/12 06:13:30;;;;;;;6.90;3.90;;;;;;;5.96;75.14;100410.84;5004174;28;20029;-85
2022/11/12 06:15:56;;;;;;;6.15;4.50;;;;;;;5.86;74.73;100398.88;5016911;28;20037;-85
2022/11/12 06:18:23;;;;;;;6.38;4.65;;;;;;;5.99;74.86;100425.56;5014071;28;20110;-86
2022/11/12 06:21:18;;;;;;;6.28;4.68;;;;;;;5.93;74.71;100429.78;4999934;28;20045;-85
2022/11/12 06:23:34;;;;;;;7.30;4.28;;;;;;;5.90;75.04;100411.56;4999010;28;20056;-85
2022/11/12 06:26:00;;;;;;;4.10;3.70;;;;;;;6.04;75.00;100420.56;5000606;28;20481;-85
2022/11/12 06:28:26;;;;;;;8.68;4.72;;;;;;;6.00;75.57;100414.81;4974538;28;20476;-84
2022/11/12 06:30:51;;;;;;;7.20;4.80;;;;;;;6.03;75.22;100424.19;4973547;28;20473;-85
2022/11/12 06:33:17;;;;;;;6.28;4.10;;;;;;;6.00;75.38;100428.06;4950700;28;20445;-85
2022/11/12 06:35:42;;;;;;;10.02;4.75;;;;;;;6.24;74.77;100420.84;4997025;28;20053;-85
2022/11/12 06:38:07;;;;;;;3.92;3.58;;;;;;;6.18;74.89;100427.69;5015440;28;20038;-85
2022/11/12 06:40:33;;;;;;;6.10;4.20;;;;;;;6.00;75.07;100408.69;4981421;28;20057;-85
2022/11/12 06:42:58;;;;;;;11.15;4.35;;;;;;;6.13;75.14;100419.47;5017476;28;20079;-85
2022/11/12 06:45:24;;;;;;;7.28;3.90;;;;;;;5.92;75.53;100390.19;4981011;28;20049;-86
2022/11/12 06:47:50;;;;;;;6.63;3.75;;;;;;;5.94;75.53;100394.31;5016435;28;20017;-85
2022/11/12 06:50:15;;;;;;;7.15;5.32;;;;;;;4.84;79.31;100431.00;5017611;28;20057;-85
2022/11/12 06:52:41;;;;;;;7.13;4.20;;;;;;;4.88;80.86;100428.84;4992679;28;20032;-85
2022/11/12 06:55:07;;;;;;;5.55;4.60;;;;;;;5.64;78.53;100428.81;5000150;28;20040;-85
2022/11/12 06:57:33;;;;;;;6.03;4.50;;;;;;;5.84;76.76;100436.16;5027455;28;20037;-84
2022/11/12 06:59:59;;;;;;;6.32;4.25;;;;;;;6.03;75.74;100432.97;5010841;28;20481;-85
2022/11/12 07:02:24;;;;;;;6.82;4.78;;;;;;;6.01;75.91;100420.91;5032085;28;20045;-84
2022/11/12 07:04:49;;;;;;;5.43;4.20;;;;;;;6.19;75.48;100439.13;5030518;28;20580;-85
2022/11/12 07:07:15;;;;;;;7.32;4.20;;;;;;;6.16;75.09;100436.84;5033111;28;20061;-85
2022/11/12 07:09:40;;;;;;;6.53;4.57;;;;;;;6.28;75.20;100441.53;5032856;28;20021;-84
2022/11/12 07:12:06;;;;;;;6.43;4.38;;;;;;;6.38;74.76;100423.50;5009969;28;20060;-84
2022/11/12 07:14:31;;;;;;;12.85;10.02;;;;;;;5.24;78.58;100437.91;5009312;28;20095;-84
2022/11/12 07:16:57;;;;;;;9.43;6.68;;;;;;;4.41;83.08;100434.16;5028983;28;20049;-85
2022/11/12 07:19:22;;;;;;;8.75;6.95;;;;;;;4.47;83.41;100444.88;4997365;28;20061;-84
2022/11/12 07:21:47;;;;;;;8.77;6.35;;;;;;;4.36;83.35;100416.16;5008650;28;20037;-85
2022/11/12 07:24:13;;;;;;;9.55;7.22;;;;;;;4.24;85.30;100449.22;4997775;28;20029;-84
2022/11/12 07:26:38;;;;;;;10.20;6.90;;;;;;;4.06;86.05;100438.03;5029185;28;20029;-84
2022/11/12 07:29:06;;;;;;;9.23;7.63;;;;;;;4.88;84.07;100442.88;4991710;28;20034;-85
2022/11/12 07:31:31;;;;;;;11.00;6.80;;;;;;;5.49;79.23;100415.53;5026496;28;20029;-85
2022/11/12 07:33:57;;;;;;;12.45;10.30;;;;;;;5.11;81.35;100430.50;4997306;28;20037;-85
2022/11/12 07:36:22;;;;;;;10.77;8.88;;;;;;;4.79;83.29;100417.47;4993609;28;20122;-85
2022/11/12 07:38:51;;;;;;;8.35;7.35;;;;;;;5.67;79.02;100410.78;4993316;28;20056;-85
2022/11/12 07:41:21;;;;;;;8.65;7.30;;;;;;;6.26;77.53;100448.84;5008781;28;20112;-84
2022/11/12 07:43:48;;;;;;;10.80;7.00;;;;;;;6.36;77.06;100451.19;5012758;28;20048;-85
2022/11/12 07:46:20;;;;;;;12.57;7.95;;;;;;;6.43;76.50;100437.03;4994642;28;20440;-85
2022/11/12 07:48:46;;;;;;;12.98;8.25;;;;;;;6.42;77.38;100445.19;4975856;28;20388;-84
2022/11/12 07:51:18;;;;;;;14.75;8.70;;;;;;;6.50;77.63;100440.63;5007030;28;20030;-84
2022/11/12 07:53:45;;;;;;;18.30;13.27;;;;;;;6.19;79.38;100441.78;4994942;28;20504;-84
2022/11/12 07:56:12;;;;;;;14.18;10.20;;;;;;;5.88;81.60;100455.97;5016669;28;20546;-84
2022/11/12 07:58:38;;;;;;;19.80;12.27;;;;;;;5.92;81.80;100461.72;5010849;28;20116;-84
2022/11/12 08:01:26;;;;;;;17.98;12.30;;;;;;;5.69;83.63;100437.91;4978366;28;20032;-84
2022/11/12 08:03:51;;;;;;;13.65;10.73;;;;;;;6.28;80.20;100432.75;5012142;28;20035;-84
2022/11/12 08:06:17;;;;;;;17.50;12.07;;;;;;;6.59;79.44;100449.31;5007898;28;20041;-84
2022/11/12 08:08:42;;;;;;;14.43;10.55;;;;;;;6.73;79.15;100443.16;4989101;28;20520;-84
2022/11/12 08:11:08;;;;;;;12.18;9.18;;;;;;;6.52;78.58;100403.28;4990754;28;20134;-83
2022/11/12 08:13:33;;;;;;;15.65;10.52;;;;;;;6.83;77.94;100441.06;4994475;28;20029;-83
2022/11/12 08:15:59;;;;;;;11.65;9.48;;;;;;;6.80;78.14;100425.50;5009718;28;20083;-83
2022/11/12 08:18:25;;;;;;;12.15;8.82;;;;;;;6.82;78.33;100434.09;4990735;28;20454;-84
2022/11/12 08:20:50;;;;;;;14.48;9.50;;;;;;;6.98;77.83;100428.56;4987644;28;20036;-84
2022/11/12 08:23:16;;;;;;;13.90;9.32;;;;;;;7.01;78.35;100449.41;4992719;28;20490;-84
2022/11/12 08:25:41;;;;;;;12.82;8.95;;;;;;;7.10;78.22;100442.19;5003254;28;20048;-83
2022/11/12 08:28:07;;;;;;;16.67;8.98;;;;;;;7.11;78.94;100449.13;4992004;28;20029;-83
2022/11/12 08:30:32;;;;;;;17.35;10.38;;;;;;;7.01;79.85;100432.69;4997156;28;20029;-84
2022/11/12 08:33:00;;;;;;;13.85;8.75;;;;;;;7.23;78.93;100445.81;4993216;28;21251;-84
2022/11/12 08:35:27;;;;;;;14.27;9.23;;;;;;;7.15;78.73;100421.19;4998700;28;20352;-82
2022/11/12 08:38:01;;;;;;;11.50;8.25;;;;;;;7.24;79.05;100430.69;5008099;28;20160;-83
2022/11/12 08:40:28;;;;;;;12.07;8.32;;;;;;;7.38;78.37;100432.50;5013863;28;20125;-84
2022/11/12 08:43:01;;;;;;;13.95;10.20;;;;;;;7.27;79.03;100423.16;4994545;28;20029;-84
2022/11/12 08:45:28;;;;;;;12.85;9.18;;;;;;;7.42;81.10;100450.53;5006168;28;20088;-84
2022/11/12 08:47:58;;;;;;;19.48;12.10;;;;;;;7.21;83.43;100426.59;5018088;28;20032;-83
2022/11/12 08:50:23;;;;;;;19.88;12.70;;;;;;;7.43;82.39;100452.16;5018975;28;20979;-84
2022/11/12 08:52:49;;;;;;;13.88;10.00;;;;;;;7.16;84.90;100426.34;5013975;28;20149;-83
2022/11/12 08:55:14;;;;;;;10.18;8.13;;;;;;;7.53;80.17;100436.72;5002261;28;20123;-85
2022/11/12 08:57:41;;;;;;;11.32;8.30;;;;;;;7.81;78.55;100455.38;5025657;28;20030;-84
2022/11/12 09:00:09;;;;;;;9.15;7.78;;;;;;;7.70;78.31;100447.94;5023058;28;20060;-84
2022/11/12 09:02:34;;;;;;;13.70;8.80;;;;;;;7.51;80.43;100449.38;5002186;28;20037;-83
2022/11/12 09:04:59;;;;;;;11.13;7.38;;;;;;;7.67;79.26;100461.59;5028032;28;20094;-84
2022/11/12 09:07:25;;;;;;;12.75;8.55;;;;;;;7.57;80.74;100472.53;5002547;28;20469;-84
2022/11/12 09:09:50;;;;;;;10.25;7.43;;;;;;;7.56;80.41;100456.78;5015885;28;20025;-83
2022/11/12 09:12:18;;;;;;;18.00;11.73;;;;;;;7.50;80.58;100449.56;4975923;28;20034;-84
2022/11/12 09:14:44;;;;;;;16.50;11.48;;;;;;;7.12;87.32;100477.34;4964030;28;20039;-83
2022/11/12 09:17:10;;;;;;;20.40;8.70;;;;;;;7.31;82.44;100474.91;5020968;28;20041;-83
2022/11/12 09:19:36;;;;;;;13.90;10.63;;;;;;;7.27;83.13;100468.31;5019891;28;20033;-84
2022/11/12 09:22:01;;;;;;;12.82;8.73;;;;;;;7.25;82.93;100453.59;5019587;28;20083;-84
2022/11/12 09:24:26;;;;;;;13.57;7.93;;;;;;;7.61;80.21;100482.78;5017466;28;20036;-83
2022/11/12 09:26:53;;;;;;;18.48;12.50;;;;;;;7.04;85.22;100457.03;5021304;28;20053;-84
2022/11/12 09:29:18;;;;;;;18.55;12.10;;;;;;;7.12;85.46;100487.97;5021701;28;20348;-86
2022/11/12 09:31:43;;;;;;;21.90;14.95;;;;;;;7.37;82.30;100478.66;5002129;28;20486;-83
2022/11/12 09:34:09;;;;;;;14.80;9.18;;;;;;;7.35;82.06;100485.97;4984044;28;20541;-84
2022/11/12 09:36:34;;;;;;;16.15;7.93;;;;;;;7.44;80.80;100487.53;4984569;28;20125;-84
2022/11/12 09:39:00;;;;;;;17.33;8.48;;;;;;;7.54;80.03;100486.19;5019715;28;20029;-84
2022/11/12 09:41:35;;;;;;;12.95;9.15;;;;;;;7.73;79.91;100507.84;4984631;28;20083;-84
2022/11/12 09:44:09;;;;;;;12.15;8.57;;;;;;;7.66;79.89;100496.31;4998199;28;20598;-84
2022/11/12 09:46:35;;;;;;;28.85;18.35;;;;;;;7.61;80.44;100488.09;5004201;28;20022;-82
2022/11/12 09:49:03;;;;;;;13.50;9.05;;;;;;;7.72;79.65;100490.25;5021060;28;20439;-84
2022/11/12 09:51:41;;;;;;;25.25;16.05;;;;;;;7.27;83.04;100464.84;5024622;28;20028;-84
2022/11/12 09:54:29;;;;;;;14.48;9.95;;;;;;;7.60;80.55;100468.66;5021486;28;20026;-83
2022/11/12 09:56:55;;;;;;;14.52;9.70;;;;;;;7.53;80.29;100465.94;5021110;28;20612;-83
2022/11/12 09:59:22;;;;;;;13.77;9.95;;;;;;;7.55;80.91;100468.44;4998997;28;20030;-83
2022/11/12 10:02:09;;;;;;;13.50;9.98;;;;;;;7.78;79.94;100477.03;4991182;28;20753;-83
2022/11/12 10:04:50;;;;;;;21.55;13.55;;;;;;;7.50;84.88;100473.47;5012801;28;20073;-83
2022/11/12 10:07:26;;;;;;;17.60;12.75;;;;;;;7.46;83.69;100472.22;5015148;28;20052;-84
2022/11/12 10:10:16;;;;;;;14.00;10.70;;;;;;;7.57;83.91;100471.72;5004281;28;20036;-83
2022/11/12 10:13:11;;;;;;;12.98;10.07;;;;;;;7.90;79.80;100469.38;5009239;28;20025;-83
2022/11/12 10:18:39;;;;;;;13.60;10.18;;;;;;;7.77;82.11;100462.09;5013802;28;20044;-83
2022/11/12 10:21:45;;;;;;;18.92;13.18;;;;;;;7.56;86.65;100462.09;5011525;28;20026;-83
2022/11/12 10:24:11;;;;;;;20.65;12.93;;;;;;;7.44;87.44;100445.84;5008089;28;20037;-83
2022/11/12 10:26:38;;;;;;;16.25;12.35;;;;;;;7.92;82.35;100462.84;5022027;28;20116;-83
2022/11/12 10:29:09;;;;;;;17.33;13.25;;;;;;;8.09;82.12;100463.38;5026048;28;20119;-83
2022/11/12 10:31:35;;;;;;;18.65;11.55;;;;;;;7.75;85.09;100440.22;5003101;28;20038;-83
2022/11/12 10:34:22;;;;;;;23.40;13.00;;;;;;;7.84;87.32;100454.19;5004882;28;20571;-83
2022/11/12 10:36:59;;;;;;;19.92;13.10;;;;;;;7.69;88.42;100429.53;5026308;28;20394;-83
2022/11/12 10:39:31;;;;;;;20.83;13.85;;;;;;;7.92;88.68;100462.84;5023910;28;20822;-83
2022/11/12 10:42:06;;;;;;;24.00;13.05;;;;;;;7.97;88.54;100454.31;5009812;28;20025;-83
2022/11/12 10:44:32;;;;;;;20.80;13.53;;;;;;;7.98;88.92;100442.63;5029573;28;20033;-85
2022/11/12 10:47:30;;;;;;;18.38;11.85;;;;;;;8.41;83.56;100448.72;5022549;28;20030;-83
2022/11/12 10:50:09;;;;;;;11.90;8.82;;;;;;;8.50;82.57;100445.69;5027438;28;20412;-83
2022/11/12 10:52:35;;;;;;;10.18;8.65;;;;;;;8.90;79.00;100441.41;5026144;28;20033;-83
2022/11/12 10:55:14;;;;;;;12.93;8.77;;;;;;;9.06;78.64;100431.22;4994506;28;20048;-83
2022/11/12 10:57:40;;;;;;;14.52;10.27;;;;;;;8.78;80.12;100419.84;5027534;28;20740;-83
2022/11/12 11:00:11;;;;;;;11.73;8.05;;;;;;;9.02;78.98;100423.84;5015338;28;20033;-84
2022/11/12 11:02:45;;;;;;;12.70;8.77;;;;;;;9.14;78.49;100435.53;5026874;28;20056;-83
2022/11/12 11:05:54;;;;;;;15.00;9.73;;;;;;;9.29;78.51;100430.03;5027609;28;20025;-83
2022/11/12 11:09:02;;;;;;;13.05;10.02;;;;;;;9.21;79.14;100430.25;5002273;28;20052;-83
2022/11/12 11:11:29;;;;;;;23.73;13.48;;;;;;;9.30;79.29;100418.38;5004588;28;20061;-84
2022/11/12 11:14:07;;;;;;;37.92;16.88;;;;;;;9.03;80.06;100393.50;5022074;28;20036;-83
2022/11/12 11:16:48;;;;;;;17.83;11.23;;;;;;;9.39;78.70;100419.84;5009163;28;20053;-84
2022/11/12 11:19:13;;;;;;;19.48;10.50;;;;;;;9.45;79.35;100419.03;5025384;28;20032;-84
2022/11/12 11:21:48;;;;;;;15.95;12.98;;;;;;;9.42;81.55;100419.41;5027520;28;20029;-83
2022/11/12 11:24:47;;;;;;;19.63;12.57;;;;;;;9.36;82.42;100413.06;5024690;28;20057;-83
2022/11/12 11:27:42;;;;;;;20.25;12.75;;;;;;;9.31;83.68;100402.19;5027902;28;20053;-83
2022/11/12 11:30:15;;;;;;;18.80;11.57;;;;;;;9.50;79.66;100405.91;4999973;28;20070;-83
2022/11/12 11:32:55;;;;;;;18.13;13.10;;;;;;;9.55;80.07;100392.78;5030144;28;20022;-84
2022/11/12 11:35:23;;;;;;;15.68;10.80;;;;;;;9.73;79.59;100406.34;5028976;28;20056;-84
2022/11/12 11:38:03;;;;;;;17.23;11.35;;;;;;;9.68;82.68;100408.78;5008948;28;20036;-83
2022/11/12 11:41:01;;;;;;;15.63;11.48;;;;;;;9.56;81.43;100389.09;5027942;28;20025;-84
2022/11/12 11:43:36;;;;;;;14.13;10.35;;;;;;;9.91;78.21;100414.56;5017936;28;20056;-83
2022/11/12 11:46:27;;;;;;;13.48;9.65;;;;;;;9.97;78.35;100400.38;5024012;28;20160;-84
2022/11/12 11:49:17;;;;;;;13.80;9.75;;;;;;;9.87;79.13;100409.84;5019703;28;20029;-83
2022/11/12 11:52:00;;;;;;;14.65;10.77;;;;;;;9.96;79.32;100404.06;5001282;28;20026;-83
2022/11/12 11:54:31;;;;;;;14.73;10.40;;;;;;;9.93;79.83;100404.50;5019700;28;20033;-83
2022/11/12 11:57:00;;;;;;;13.63;11.02;;;;;;;10.07;78.65;100407.97;5026283;28;20030;-83